sensor_id;sensor_type;location;lat;lon;timestamp;P1;durP1;ratioP1;P2;durP2;ratioP2
39044;SDS011;52192;52.002;5.956;2022-09-12T00:01:13;5.93;;;2.67;;
39044;SDS011;52192;52.002;5.956;2022-09-12T00:03:43;5.25;;;3.55;;
39044;SDS011;52192;52.002;5.956;2022-09-12T00:06:15;4.30;;;3.50;;
39044;SDS011;52192;52.002;5.956;2022-09-12T00:08:43;3.40;;;3.05;;
39044;SDS011;52192;52.002;5.956;2022-09-12T00:11:09;5.82;;;3.97;;
39044;SDS011;52192;52.002;5.956;2022-09-12T00:13:37;4.00;;;3.17;;
39044;SDS011;52192;52.002;5.956;2022-09-12T00:16:04;4.40;;;3.35;;
39044;SDS011;52192;52.002;5.956;2022-09-12T00:18:30;3.92;;;3.38;;
39044;SDS011;52192;52.002;5.956;2022-09-12T00:20:57;4.68;;;3.72;;
39044;SDS011;52192;52.002;5.956;2022-09-12T00:23:27;4.70;;;3.13;;
39044;SDS011;52192;52.002;5.956;2022-09-12T00:25:53;4.30;;;2.90;;
39044;SDS011;52192;52.002;5.956;2022-09-12T00:28:19;5.18;;;3.83;;
39044;SDS011;52192;52.002;5.956;2022-09-12T00:30:45;3.97;;;3.00;;
39044;SDS011;52192;52.002;5.956;2022-09-12T00:33:13;5.22;;;3.33;;
39044;SDS011;52192;52.002;5.956;2022-09-12T00:35:44;4.97;;;3.38;;
39044;SDS011;52192;52.002;5.956;2022-09-12T00:38:12;5.90;;;4.18;;
39044;SDS011;52192;52.002;5.956;2022-09-12T00:40:39;3.78;;;3.08;;
39044;SDS011;52192;52.002;5.956;2022-09-12T00:43:08;6.20;;;3.60;;
39044;SDS011;52192;52.002;5.956;2022-09-12T00:45:55;5.60;;;3.22;;
39044;SDS011;52192;52.002;5.956;2022-09-12T00:48:25;5.72;;;3.92;;
39044;SDS011;52192;52.002;5.956;2022-09-12T00:50:59;3.53;;;3.17;;
39044;SDS011;52192;52.002;5.956;2022-09-12T00:53:25;5.43;;;3.72;;
39044;SDS011;52192;52.002;5.956;2022-09-12T00:55:52;5.90;;;4.53;;
39044;SDS011;52192;52.002;5.956;2022-09-12T00:58:30;4.75;;;4.00;;
39044;SDS011;52192;52.002;5.956;2022-09-12T01:01:03;5.05;;;3.33;;
39044;SDS011;52192;52.002;5.956;2022-09-12T01:03:30;5.28;;;3.08;;
39044;SDS011;52192;52.002;5.956;2022-09-12T01:08:24;5.30;;;3.67;;
39044;SDS011;52192;52.002;5.956;2022-09-12T01:10:51;4.10;;;3.35;;
39044;SDS011;52192;52.002;5.956;2022-09-12T01:13:17;4.15;;;3.10;;
39044;SDS011;52192;52.002;5.956;2022-09-12T01:15:43;6.60;;;4.18;;
39044;SDS011;52192;52.002;5.956;2022-09-12T01:18:11;6.60;;;3.92;;
39044;SDS011;52192;52.002;5.956;2022-09-12T01:26:26;6.47;;;4.40;;
39044;SDS011;52192;52.002;5.956;2022-09-12T01:34:46;6.38;;;4.38;;
39044;SDS011;52192;52.002;5.956;2022-09-12T01:37:26;6.50;;;4.97;;
39044;SDS011;52192;52.002;5.956;2022-09-12T01:40:02;4.03;;;3.58;;
39044;SDS011;52192;52.002;5.956;2022-09-12T01:42:39;7.18;;;4.05;;
39044;SDS011;52192;52.002;5.956;2022-09-12T01:46:02;7.45;;;4.18;;
39044;SDS011;52192;52.002;5.956;2022-09-12T01:50:51;8.13;;;4.68;;
39044;SDS011;52192;52.002;5.956;2022-09-12T01:53:33;5.57;;;4.15;;
39044;SDS011;52192;52.002;5.956;2022-09-12T01:56:06;8.23;;;5.05;;
39044;SDS011;52192;52.002;5.956;2022-09-12T01:58:41;6.65;;;3.67;;
39044;SDS011;52192;52.002;5.956;2022-09-12T02:01:27;5.43;;;4.15;;
39044;SDS011;52192;52.002;5.956;2022-09-12T02:06:32;5.32;;;4.10;;
39044;SDS011;52192;52.002;5.956;2022-09-12T02:11:49;4.38;;;3.55;;
39044;SDS011;52192;52.002;5.956;2022-09-12T02:14:22;5.97;;;4.00;;
39044;SDS011;52192;52.002;5.956;2022-09-12T02:17:12;5.65;;;4.43;;
39044;SDS011;52192;52.002;5.956;2022-09-12T02:19:43;13.10;;;4.57;;
39044;SDS011;52192;52.002;5.956;2022-09-12T02:22:19;7.00;;;4.90;;
39044;SDS011;52192;52.002;5.956;2022-09-12T02:24:51;9.75;;;4.13;;
39044;SDS011;52192;52.002;5.956;2022-09-12T02:27:20;6.25;;;4.70;;
39044;SDS011;52192;52.002;5.956;2022-09-12T02:30:08;6.95;;;4.70;;
39044;SDS011;52192;52.002;5.956;2022-09-12T02:32:40;7.63;;;5.45;;
39044;SDS011;52192;52.002;5.956;2022-09-12T02:35:21;6.00;;;3.95;;
39044;SDS011;52192;52.002;5.956;2022-09-12T02:38:08;7.93;;;6.15;;
39044;SDS011;52192;52.002;5.956;2022-09-12T02:40:41;11.93;;;5.20;;
39044;SDS011;52192;52.002;5.956;2022-09-12T02:43:07;7.93;;;5.55;;
39044;SDS011;52192;52.002;5.956;2022-09-12T02:45:33;7.10;;;5.15;;
39044;SDS011;52192;52.002;5.956;2022-09-12T02:48:14;6.00;;;4.63;;
39044;SDS011;52192;52.002;5.956;2022-09-12T02:50:44;6.68;;;4.68;;
39044;SDS011;52192;52.002;5.956;2022-09-12T02:53:10;8.38;;;4.75;;
39044;SDS011;52192;52.002;5.956;2022-09-12T02:55:36;7.85;;;4.85;;
39044;SDS011;52192;52.002;5.956;2022-09-12T02:58:09;5.57;;;4.50;;
39044;SDS011;52192;52.002;5.956;2022-09-12T03:00:53;12.15;;;6.35;;
39044;SDS011;52192;52.002;5.956;2022-09-12T03:14:25;5.03;;;3.95;;
39044;SDS011;52192;52.002;5.956;2022-09-12T03:17:23;5.25;;;4.00;;
39044;SDS011;52192;52.002;5.956;2022-09-12T03:20:09;5.68;;;3.90;;
39044;SDS011;52192;52.002;5.956;2022-09-12T03:27:58;7.50;;;5.05;;
39044;SDS011;52192;52.002;5.956;2022-09-12T03:30:43;6.53;;;4.25;;
39044;SDS011;52192;52.002;5.956;2022-09-12T03:33:11;6.35;;;4.65;;
39044;SDS011;52192;52.002;5.956;2022-09-12T03:35:41;6.20;;;5.10;;
39044;SDS011;52192;52.002;5.956;2022-09-12T03:38:07;8.88;;;5.78;;
39044;SDS011;52192;52.002;5.956;2022-09-12T03:40:34;7.95;;;5.38;;
39044;SDS011;52192;52.002;5.956;2022-09-12T03:43:00;10.82;;;5.75;;
39044;SDS011;52192;52.002;5.956;2022-09-12T03:45:26;6.35;;;4.13;;
39044;SDS011;52192;52.002;5.956;2022-09-12T03:47:52;7.63;;;4.45;;
39044;SDS011;52192;52.002;5.956;2022-09-12T03:50:17;7.60;;;4.80;;
39044;SDS011;52192;52.002;5.956;2022-09-12T03:52:43;7.40;;;4.75;;
39044;SDS011;52192;52.002;5.956;2022-09-12T03:55:09;7.10;;;5.13;;
39044;SDS011;52192;52.002;5.956;2022-09-12T03:57:35;7.03;;;5.47;;
39044;SDS011;52192;52.002;5.956;2022-09-12T04:00:00;7.32;;;4.85;;
39044;SDS011;52192;52.002;5.956;2022-09-12T04:02:27;9.73;;;5.70;;
39044;SDS011;52192;52.002;5.956;2022-09-12T04:04:53;7.88;;;5.32;;
39044;SDS011;52192;52.002;5.956;2022-09-12T04:07:19;11.10;;;5.72;;
39044;SDS011;52192;52.002;5.956;2022-09-12T04:09:44;5.97;;;4.78;;
39044;SDS011;52192;52.002;5.956;2022-09-12T04:12:10;9.20;;;5.60;;
39044;SDS011;52192;52.002;5.956;2022-09-12T04:14:36;7.50;;;5.18;;
39044;SDS011;52192;52.002;5.956;2022-09-12T04:17:02;8.70;;;5.47;;
39044;SDS011;52192;52.002;5.956;2022-09-12T04:19:28;6.85;;;4.95;;
39044;SDS011;52192;52.002;5.956;2022-09-12T04:21:54;9.38;;;5.50;;
39044;SDS011;52192;52.002;5.956;2022-09-12T04:24:19;8.25;;;5.25;;
39044;SDS011;52192;52.002;5.956;2022-09-12T04:26:45;7.43;;;5.32;;
39044;SDS011;52192;52.002;5.956;2022-09-12T04:29:11;11.57;;;6.53;;
39044;SDS011;52192;52.002;5.956;2022-09-12T04:31:36;9.45;;;6.00;;
39044;SDS011;52192;52.002;5.956;2022-09-12T04:34:03;9.43;;;6.20;;
39044;SDS011;52192;52.002;5.956;2022-09-12T04:36:29;11.88;;;7.15;;
39044;SDS011;52192;52.002;5.956;2022-09-12T04:38:57;10.45;;;6.47;;
39044;SDS011;52192;52.002;5.956;2022-09-12T04:41:25;9.65;;;5.05;;
39044;SDS011;52192;52.002;5.956;2022-09-12T04:43:54;8.50;;;5.93;;
39044;SDS011;52192;52.002;5.956;2022-09-12T04:46:23;9.15;;;6.07;;
39044;SDS011;52192;52.002;5.956;2022-09-12T04:48:49;7.68;;;5.55;;
39044;SDS011;52192;52.002;5.956;2022-09-12T04:51:16;7.65;;;5.20;;
39044;SDS011;52192;52.002;5.956;2022-09-12T04:53:47;7.80;;;5.43;;
39044;SDS011;52192;52.002;5.956;2022-09-12T04:56:15;8.80;;;5.13;;
39044;SDS011;52192;52.002;5.956;2022-09-12T04:58:41;9.07;;;6.20;;
39044;SDS011;52192;52.002;5.956;2022-09-12T05:01:08;10.10;;;5.18;;
39044;SDS011;52192;52.002;5.956;2022-09-12T05:03:39;11.23;;;7.18;;
39044;SDS011;52192;52.002;5.956;2022-09-12T05:06:13;7.05;;;5.68;;
39044;SDS011;52192;52.002;5.956;2022-09-12T05:08:41;11.57;;;6.15;;
39044;SDS011;52192;52.002;5.956;2022-09-12T05:11:09;9.32;;;6.03;;
39044;SDS011;52192;52.002;5.956;2022-09-12T05:13:37;8.70;;;5.65;;
39044;SDS011;52192;52.002;5.956;2022-09-12T05:16:03;10.10;;;5.63;;
39044;SDS011;52192;52.002;5.956;2022-09-12T05:18:34;9.43;;;5.32;;
39044;SDS011;52192;52.002;5.956;2022-09-12T05:21:01;8.85;;;6.07;;
39044;SDS011;52192;52.002;5.956;2022-09-12T05:23:29;8.98;;;5.50;;
39044;SDS011;52192;52.002;5.956;2022-09-12T05:25:56;7.63;;;5.63;;
39044;SDS011;52192;52.002;5.956;2022-09-12T05:28:24;6.95;;;6.22;;
39044;SDS011;52192;52.002;5.956;2022-09-12T05:31:06;10.45;;;6.45;;
39044;SDS011;52192;52.002;5.956;2022-09-12T05:33:36;7.90;;;5.38;;
39044;SDS011;52192;52.002;5.956;2022-09-12T05:36:03;11.43;;;6.60;;
39044;SDS011;52192;52.002;5.956;2022-09-12T05:38:31;10.32;;;5.70;;
39044;SDS011;52192;52.002;5.956;2022-09-12T05:41:03;9.63;;;5.68;;
39044;SDS011;52192;52.002;5.956;2022-09-12T05:43:34;7.88;;;5.60;;
39044;SDS011;52192;52.002;5.956;2022-09-12T05:46:05;7.28;;;5.65;;
39044;SDS011;52192;52.002;5.956;2022-09-12T05:48:36;9.70;;;6.80;;
39044;SDS011;52192;52.002;5.956;2022-09-12T05:51:06;9.27;;;5.82;;
39044;SDS011;52192;52.002;5.956;2022-09-12T05:53:38;12.68;;;8.13;;
39044;SDS011;52192;52.002;5.956;2022-09-12T05:58:34;14.95;;;6.55;;
39044;SDS011;52192;52.002;5.956;2022-09-12T06:01:04;8.60;;;5.93;;
39044;SDS011;52192;52.002;5.956;2022-09-12T06:03:32;10.82;;;6.43;;
39044;SDS011;52192;52.002;5.956;2022-09-12T06:06:00;10.32;;;6.72;;
39044;SDS011;52192;52.002;5.956;2022-09-12T06:08:27;7.63;;;5.70;;
39044;SDS011;52192;52.002;5.956;2022-09-12T06:10:57;11.95;;;6.43;;
39044;SDS011;52192;52.002;5.956;2022-09-12T06:13:33;7.72;;;5.30;;
39044;SDS011;52192;52.002;5.956;2022-09-12T06:16:04;14.57;;;6.88;;
39044;SDS011;52192;52.002;5.956;2022-09-12T06:18:35;12.25;;;5.43;;
39044;SDS011;52192;52.002;5.956;2022-09-12T06:21:06;9.15;;;6.68;;
39044;SDS011;52192;52.002;5.956;2022-09-12T06:23:33;9.68;;;6.93;;
39044;SDS011;52192;52.002;5.956;2022-09-12T06:25:59;11.57;;;6.97;;
39044;SDS011;52192;52.002;5.956;2022-09-12T06:28:25;9.57;;;6.85;;
39044;SDS011;52192;52.002;5.956;2022-09-12T06:30:51;7.25;;;5.65;;
39044;SDS011;52192;52.002;5.956;2022-09-12T06:33:17;13.73;;;8.00;;
39044;SDS011;52192;52.002;5.956;2022-09-12T06:35:43;9.80;;;6.65;;
39044;SDS011;52192;52.002;5.956;2022-09-12T06:38:08;10.95;;;7.05;;
39044;SDS011;52192;52.002;5.956;2022-09-12T06:40:39;15.15;;;8.82;;
39044;SDS011;52192;52.002;5.956;2022-09-12T06:43:09;11.38;;;7.35;;
39044;SDS011;52192;52.002;5.956;2022-09-12T06:45:36;11.73;;;8.13;;
39044;SDS011;52192;52.002;5.956;2022-09-12T06:48:01;12.77;;;8.25;;
39044;SDS011;52192;52.002;5.956;2022-09-12T06:50:27;10.98;;;5.88;;
39044;SDS011;52192;52.002;5.956;2022-09-12T06:52:53;10.82;;;7.38;;
39044;SDS011;52192;52.002;5.956;2022-09-12T06:55:18;16.13;;;7.97;;
39044;SDS011;52192;52.002;5.956;2022-09-12T06:57:44;10.38;;;7.00;;
39044;SDS011;52192;52.002;5.956;2022-09-12T07:00:10;13.77;;;7.80;;
39044;SDS011;52192;52.002;5.956;2022-09-12T07:02:36;12.45;;;7.30;;
39044;SDS011;52192;52.002;5.956;2022-09-12T07:05:02;15.55;;;7.90;;
39044;SDS011;52192;52.002;5.956;2022-09-12T07:07:28;17.17;;;7.47;;
39044;SDS011;52192;52.002;5.956;2022-09-12T07:09:58;14.00;;;7.35;;
39044;SDS011;52192;52.002;5.956;2022-09-12T07:12:24;12.50;;;7.35;;
39044;SDS011;52192;52.002;5.956;2022-09-12T07:14:51;15.65;;;8.45;;
39044;SDS011;52192;52.002;5.956;2022-09-12T07:17:17;10.68;;;6.25;;
39044;SDS011;52192;52.002;5.956;2022-09-12T07:19:42;10.07;;;7.50;;
39044;SDS011;52192;52.002;5.956;2022-09-12T07:22:08;11.45;;;6.47;;
39044;SDS011;52192;52.002;5.956;2022-09-12T07:24:34;9.73;;;7.47;;
39044;SDS011;52192;52.002;5.956;2022-09-12T07:26:59;13.40;;;7.28;;
39044;SDS011;52192;52.002;5.956;2022-09-12T07:29:25;12.02;;;7.82;;
39044;SDS011;52192;52.002;5.956;2022-09-12T07:31:51;13.95;;;8.15;;
39044;SDS011;52192;52.002;5.956;2022-09-12T07:34:17;15.13;;;8.63;;
39044;SDS011;52192;52.002;5.956;2022-09-12T07:36:43;16.92;;;7.60;;
39044;SDS011;52192;52.002;5.956;2022-09-12T07:39:08;11.68;;;8.15;;
39044;SDS011;52192;52.002;5.956;2022-09-12T07:41:35;13.00;;;8.93;;
39044;SDS011;52192;52.002;5.956;2022-09-12T07:44:01;12.30;;;7.68;;
39044;SDS011;52192;52.002;5.956;2022-09-12T07:46:28;15.95;;;8.80;;
39044;SDS011;52192;52.002;5.956;2022-09-12T07:48:55;13.43;;;6.72;;
39044;SDS011;52192;52.002;5.956;2022-09-12T07:51:23;17.85;;;9.25;;
39044;SDS011;52192;52.002;5.956;2022-09-12T07:53:49;17.17;;;8.02;;
39044;SDS011;52192;52.002;5.956;2022-09-12T07:56:16;10.73;;;6.20;;
39044;SDS011;52192;52.002;5.956;2022-09-12T07:58:43;11.32;;;8.40;;
39044;SDS011;52192;52.002;5.956;2022-09-12T08:01:11;12.63;;;7.32;;
39044;SDS011;52192;52.002;5.956;2022-09-12T08:03:39;15.15;;;9.15;;
39044;SDS011;52192;52.002;5.956;2022-09-12T08:06:06;14.60;;;8.00;;
39044;SDS011;52192;52.002;5.956;2022-09-12T08:08:37;15.23;;;8.93;;
39044;SDS011;52192;52.002;5.956;2022-09-12T08:11:05;15.13;;;8.90;;
39044;SDS011;52192;52.002;5.956;2022-09-12T08:13:33;17.60;;;10.60;;
39044;SDS011;52192;52.002;5.956;2022-09-12T08:16:01;18.65;;;8.80;;
39044;SDS011;52192;52.002;5.956;2022-09-12T08:18:29;14.30;;;8.35;;
39044;SDS011;52192;52.002;5.956;2022-09-12T08:21:00;13.45;;;8.52;;
39044;SDS011;52192;52.002;5.956;2022-09-12T08:23:27;13.18;;;7.55;;
39044;SDS011;52192;52.002;5.956;2022-09-12T08:25:57;14.25;;;8.52;;
39044;SDS011;52192;52.002;5.956;2022-09-12T08:28:24;13.95;;;8.05;;
39044;SDS011;52192;52.002;5.956;2022-09-12T08:30:51;16.35;;;8.82;;
39044;SDS011;52192;52.002;5.956;2022-09-12T08:33:18;14.52;;;7.18;;
39044;SDS011;52192;52.002;5.956;2022-09-12T08:35:44;7.50;;;5.30;;
39044;SDS011;52192;52.002;5.956;2022-09-12T08:38:10;11.00;;;7.60;;
39044;SDS011;52192;52.002;5.956;2022-09-12T08:46:33;9.52;;;5.60;;
39044;SDS011;52192;52.002;5.956;2022-09-12T08:49:08;10.50;;;6.43;;
39044;SDS011;52192;52.002;5.956;2022-09-12T08:51:39;14.45;;;7.38;;
39044;SDS011;52192;52.002;5.956;2022-09-12T08:54:10;17.38;;;8.05;;
39044;SDS011;52192;52.002;5.956;2022-09-12T08:56:43;11.02;;;6.72;;
39044;SDS011;52192;52.002;5.956;2022-09-12T08:59:10;11.57;;;6.60;;
39044;SDS011;52192;52.002;5.956;2022-09-12T09:01:39;8.93;;;4.13;;
39044;SDS011;52192;52.002;5.956;2022-09-12T09:23:21;9.93;;;4.75;;
39044;SDS011;52192;52.002;5.956;2022-09-12T09:26:03;11.60;;;5.55;;
39044;SDS011;52192;52.002;5.956;2022-09-12T09:28:38;5.35;;;3.70;;
39044;SDS011;52192;52.002;5.956;2022-09-12T09:31:15;7.88;;;4.95;;
39044;SDS011;52192;52.002;5.956;2022-09-12T09:33:42;8.40;;;4.90;;
39044;SDS011;52192;52.002;5.956;2022-09-12T09:43:55;10.23;;;6.22;;
39044;SDS011;52192;52.002;5.956;2022-09-12T09:46:22;9.13;;;4.55;;
39044;SDS011;52192;52.002;5.956;2022-09-12T09:48:48;6.68;;;4.28;;
39044;SDS011;52192;52.002;5.956;2022-09-12T09:51:16;6.80;;;4.35;;
39044;SDS011;52192;52.002;5.956;2022-09-12T09:53:58;7.78;;;5.22;;
39044;SDS011;52192;52.002;5.956;2022-09-12T09:58:55;6.20;;;4.05;;
39044;SDS011;52192;52.002;5.956;2022-09-12T10:01:21;5.45;;;3.78;;
39044;SDS011;52192;52.002;5.956;2022-09-12T10:03:54;4.03;;;2.88;;
39044;SDS011;52192;52.002;5.956;2022-09-12T10:06:21;4.18;;;2.92;;
39044;SDS011;52192;52.002;5.956;2022-09-12T10:08:49;4.50;;;3.42;;
39044;SDS011;52192;52.002;5.956;2022-09-12T10:11:17;7.22;;;3.13;;
39044;SDS011;52192;52.002;5.956;2022-09-12T10:16:20;7.15;;;4.85;;
39044;SDS011;52192;52.002;5.956;2022-09-12T10:18:49;6.63;;;3.15;;
39044;SDS011;52192;52.002;5.956;2022-09-12T10:21:20;5.03;;;3.13;;
39044;SDS011;52192;52.002;5.956;2022-09-12T10:24:03;5.18;;;3.42;;
39044;SDS011;52192;52.002;5.956;2022-09-12T10:26:51;3.28;;;2.75;;
39044;SDS011;52192;52.002;5.956;2022-09-12T10:29:28;2.40;;;1.85;;
39044;SDS011;52192;52.002;5.956;2022-09-12T10:32:01;5.05;;;3.00;;
39044;SDS011;52192;52.002;5.956;2022-09-12T10:34:33;4.38;;;2.35;;
39044;SDS011;52192;52.002;5.956;2022-09-12T10:37:04;3.55;;;2.47;;
39044;SDS011;52192;52.002;5.956;2022-09-12T10:39:39;4.18;;;2.53;;
39044;SDS011;52192;52.002;5.956;2022-09-12T10:42:13;3.03;;;2.25;;
39044;SDS011;52192;52.002;5.956;2022-09-12T10:44:39;4.47;;;2.05;;
39044;SDS011;52192;52.002;5.956;2022-09-12T10:47:19;2.03;;;1.75;;
39044;SDS011;52192;52.002;5.956;2022-09-12T10:49:52;3.05;;;2.03;;
39044;SDS011;52192;52.002;5.956;2022-09-12T10:52:21;2.78;;;2.17;;
39044;SDS011;52192;52.002;5.956;2022-09-12T10:54:51;2.40;;;1.45;;
39044;SDS011;52192;52.002;5.956;2022-09-12T11:10:57;2.78;;;1.83;;
39044;SDS011;52192;52.002;5.956;2022-09-12T11:16:29;1.48;;;1.20;;
39044;SDS011;52192;52.002;5.956;2022-09-12T11:19:03;1.17;;;0.80;;
39044;SDS011;52192;52.002;5.956;2022-09-12T11:27:11;1.08;;;0.98;;
39044;SDS011;52192;52.002;5.956;2022-09-12T11:35:27;1.10;;;1.00;;
39044;SDS011;52192;52.002;5.956;2022-09-12T11:51:32;1.33;;;1.05;;
39044;SDS011;52192;52.002;5.956;2022-09-12T11:54:18;1.33;;;1.00;;
39044;SDS011;52192;52.002;5.956;2022-09-12T11:57:38;1.35;;;1.15;;
39044;SDS011;52192;52.002;5.956;2022-09-12T11:59:51;1.52;;;1.42;;
39044;SDS011;52192;52.002;5.956;2022-09-12T12:02:31;1.38;;;1.25;;
39044;SDS011;52192;52.002;5.956;2022-09-12T12:05:21;1.52;;;1.35;;
39044;SDS011;52192;52.002;5.956;2022-09-12T12:07:51;2.53;;;1.52;;
39044;SDS011;52192;52.002;5.956;2022-09-12T12:12:55;1.67;;;1.33;;
39044;SDS011;52192;52.002;5.956;2022-09-12T12:15:23;0.70;;;0.70;;
39044;SDS011;52192;52.002;5.956;2022-09-12T12:20:42;2.05;;;1.60;;
39044;SDS011;52192;52.002;5.956;2022-09-12T12:25:55;1.58;;;1.48;;
39044;SDS011;52192;52.002;5.956;2022-09-12T12:31:07;0.70;;;0.70;;
39044;SDS011;52192;52.002;5.956;2022-09-12T12:33:59;1.33;;;1.13;;
39044;SDS011;52192;52.002;5.956;2022-09-12T12:36:35;2.05;;;1.10;;
39044;SDS011;52192;52.002;5.956;2022-09-12T12:41:56;0.80;;;0.80;;
39044;SDS011;52192;52.002;5.956;2022-09-12T12:49:48;1.50;;;1.05;;
39044;SDS011;52192;52.002;5.956;2022-09-12T12:52:22;2.53;;;1.65;;
39044;SDS011;52192;52.002;5.956;2022-09-12T12:54:51;1.90;;;1.15;;
39044;SDS011;52192;52.002;5.956;2022-09-12T12:59:51;1.17;;;0.90;;
39044;SDS011;52192;52.002;5.956;2022-09-12T13:02:35;3.28;;;1.13;;
39044;SDS011;52192;52.002;5.956;2022-09-12T13:05:05;1.60;;;1.38;;
39044;SDS011;52192;52.002;5.956;2022-09-12T13:07:41;3.92;;;1.55;;
39044;SDS011;52192;52.002;5.956;2022-09-12T13:10:19;1.67;;;1.10;;
39044;SDS011;52192;52.002;5.956;2022-09-12T13:12:53;1.02;;;0.93;;
39044;SDS011;52192;52.002;5.956;2022-09-12T13:18:09;1.00;;;0.90;;
39044;SDS011;52192;52.002;5.956;2022-09-12T13:21:07;1.00;;;0.90;;
39044;SDS011;52192;52.002;5.956;2022-09-12T13:23:33;0.83;;;0.83;;
39044;SDS011;52192;52.002;5.956;2022-09-12T13:26:00;1.55;;;1.27;;
39044;SDS011;52192;52.002;5.956;2022-09-12T13:28:27;0.70;;;0.70;;
39044;SDS011;52192;52.002;5.956;2022-09-12T13:36:34;1.30;;;0.80;;
39044;SDS011;52192;52.002;5.956;2022-09-12T13:42:23;0.60;;;0.60;;
39044;SDS011;52192;52.002;5.956;2022-09-12T13:47:42;1.67;;;1.10;;
39044;SDS011;52192;52.002;5.956;2022-09-12T13:50:13;1.27;;;1.17;;
39044;SDS011;52192;52.002;5.956;2022-09-12T13:52:44;3.70;;;1.77;;
39044;SDS011;52192;52.002;5.956;2022-09-12T13:58:21;1.65;;;1.38;;
39044;SDS011;52192;52.002;5.956;2022-09-12T14:01:00;1.40;;;1.20;;
39044;SDS011;52192;52.002;5.956;2022-09-12T14:03:32;1.00;;;0.82;;
39044;SDS011;52192;52.002;5.956;2022-09-12T14:06:21;1.10;;;1.10;;
39044;SDS011;52192;52.002;5.956;2022-09-12T14:08:49;1.35;;;1.15;;
39044;SDS011;52192;52.002;5.956;2022-09-12T14:11:23;2.28;;;1.02;;
39044;SDS011;52192;52.002;5.956;2022-09-12T14:13:54;2.20;;;1.20;;
39044;SDS011;52192;52.002;5.956;2022-09-12T14:16:21;1.27;;;1.00;;
39044;SDS011;52192;52.002;5.956;2022-09-12T14:18:49;1.10;;;1.00;;
39044;SDS011;52192;52.002;5.956;2022-09-12T14:23:57;0.98;;;0.98;;
39044;SDS011;52192;52.002;5.956;2022-09-12T14:26:25;0.88;;;0.77;;
39044;SDS011;52192;52.002;5.956;2022-09-12T14:28:54;1.48;;;0.80;;
39044;SDS011;52192;52.002;5.956;2022-09-12T14:31:24;2.55;;;0.93;;
39044;SDS011;52192;52.002;5.956;2022-09-12T14:33:55;0.98;;;0.93;;
39044;SDS011;52192;52.002;5.956;2022-09-12T14:36:33;1.27;;;0.75;;
39044;SDS011;52192;52.002;5.956;2022-09-12T14:39:04;1.38;;;1.02;;
39044;SDS011;52192;52.002;5.956;2022-09-12T14:41:39;1.25;;;0.93;;
39044;SDS011;52192;52.002;5.956;2022-09-12T14:44:07;1.13;;;1.13;;
39044;SDS011;52192;52.002;5.956;2022-09-12T14:46:39;0.75;;;0.75;;
39044;SDS011;52192;52.002;5.956;2022-09-12T14:51:39;0.70;;;0.70;;
39044;SDS011;52192;52.002;5.956;2022-09-12T14:57:02;2.35;;;1.63;;
39044;SDS011;52192;52.002;5.956;2022-09-12T15:04:50;1.48;;;0.98;;
39044;SDS011;52192;52.002;5.956;2022-09-12T15:07:40;1.10;;;0.80;;
39044;SDS011;52192;52.002;5.956;2022-09-12T15:10:30;1.00;;;0.90;;
39044;SDS011;52192;52.002;5.956;2022-09-12T15:13:09;2.08;;;1.05;;
39044;SDS011;52192;52.002;5.956;2022-09-12T15:15:50;1.42;;;1.05;;
39044;SDS011;52192;52.002;5.956;2022-09-12T15:18:18;0.82;;;0.82;;
39044;SDS011;52192;52.002;5.956;2022-09-12T15:20:45;0.80;;;0.80;;
39044;SDS011;52192;52.002;5.956;2022-09-12T15:23:18;0.90;;;0.90;;
39044;SDS011;52192;52.002;5.956;2022-09-12T15:25:48;0.63;;;0.63;;
39044;SDS011;52192;52.002;5.956;2022-09-12T15:28:16;1.30;;;1.08;;
39044;SDS011;52192;52.002;5.956;2022-09-12T15:30:45;1.25;;;1.10;;
39044;SDS011;52192;52.002;5.956;2022-09-12T15:33:14;1.02;;;1.02;;
39044;SDS011;52192;52.002;5.956;2022-09-12T15:35:40;1.15;;;1.05;;
39044;SDS011;52192;52.002;5.956;2022-09-12T15:38:05;0.88;;;0.88;;
39044;SDS011;52192;52.002;5.956;2022-09-12T15:40:31;0.60;;;0.60;;
39044;SDS011;52192;52.002;5.956;2022-09-12T15:42:57;1.17;;;1.08;;
39044;SDS011;52192;52.002;5.956;2022-09-12T15:45:25;1.20;;;1.10;;
39044;SDS011;52192;52.002;5.956;2022-09-12T15:47:52;1.00;;;0.73;;
39044;SDS011;52192;52.002;5.956;2022-09-12T15:50:18;1.92;;;1.10;;
39044;SDS011;52192;52.002;5.956;2022-09-12T15:52:44;0.80;;;0.80;;
39044;SDS011;52192;52.002;5.956;2022-09-12T15:55:17;1.55;;;1.30;;
39044;SDS011;52192;52.002;5.956;2022-09-12T15:57:44;2.70;;;0.90;;
39044;SDS011;52192;52.002;5.956;2022-09-12T16:00:11;0.73;;;0.73;;
39044;SDS011;52192;52.002;5.956;2022-09-12T16:02:37;0.80;;;0.80;;
39044;SDS011;52192;52.002;5.956;2022-09-12T16:05:03;0.88;;;0.80;;
39044;SDS011;52192;52.002;5.956;2022-09-12T16:07:29;0.80;;;0.80;;
39044;SDS011;52192;52.002;5.956;2022-09-12T16:09:55;1.00;;;0.90;;
39044;SDS011;52192;52.002;5.956;2022-09-12T16:12:21;3.40;;;0.95;;
39044;SDS011;52192;52.002;5.956;2022-09-12T16:14:46;1.75;;;0.98;;
39044;SDS011;52192;52.002;5.956;2022-09-12T16:17:12;0.80;;;0.80;;
39044;SDS011;52192;52.002;5.956;2022-09-12T16:19:38;0.73;;;0.68;;
39044;SDS011;52192;52.002;5.956;2022-09-12T16:22:04;0.95;;;0.93;;
39044;SDS011;52192;52.002;5.956;2022-09-12T16:24:29;1.10;;;1.00;;
39044;SDS011;52192;52.002;5.956;2022-09-12T16:26:55;1.65;;;0.80;;
39044;SDS011;52192;52.002;5.956;2022-09-12T16:29:20;0.70;;;0.70;;
39044;SDS011;52192;52.002;5.956;2022-09-12T16:31:46;0.73;;;0.73;;
39044;SDS011;52192;52.002;5.956;2022-09-12T16:34:12;0.90;;;0.90;;
39044;SDS011;52192;52.002;5.956;2022-09-12T16:36:39;1.30;;;1.00;;
39044;SDS011;52192;52.002;5.956;2022-09-12T16:39:04;1.00;;;1.00;;
39044;SDS011;52192;52.002;5.956;2022-09-12T16:41:30;1.10;;;1.00;;
39044;SDS011;52192;52.002;5.956;2022-09-12T16:43:56;1.10;;;1.00;;
39044;SDS011;52192;52.002;5.956;2022-09-12T16:46:23;1.70;;;1.15;;
39044;SDS011;52192;52.002;5.956;2022-09-12T16:48:52;1.08;;;0.98;;
39044;SDS011;52192;52.002;5.956;2022-09-12T16:51:40;1.30;;;0.85;;
39044;SDS011;52192;52.002;5.956;2022-09-12T16:54:09;0.82;;;0.70;;
39044;SDS011;52192;52.002;5.956;2022-09-12T16:56:34;1.08;;;1.00;;
39044;SDS011;52192;52.002;5.956;2022-09-12T16:59:00;0.70;;;0.70;;
39044;SDS011;52192;52.002;5.956;2022-09-12T17:01:28;1.25;;;1.15;;
39044;SDS011;52192;52.002;5.956;2022-09-12T17:03:57;0.60;;;0.60;;
39044;SDS011;52192;52.002;5.956;2022-09-12T17:06:23;1.23;;;0.93;;
39044;SDS011;52192;52.002;5.956;2022-09-12T17:08:51;0.90;;;0.90;;
39044;SDS011;52192;52.002;5.956;2022-09-12T17:13:45;0.60;;;0.60;;
39044;SDS011;52192;52.002;5.956;2022-09-12T17:16:12;0.77;;;0.77;;
39044;SDS011;52192;52.002;5.956;2022-09-12T17:18:38;0.70;;;0.70;;
39044;SDS011;52192;52.002;5.956;2022-09-12T17:21:07;0.95;;;0.85;;
39044;SDS011;52192;52.002;5.956;2022-09-12T17:23:35;1.17;;;0.90;;
39044;SDS011;52192;52.002;5.956;2022-09-12T17:26:00;2.75;;;0.70;;
39044;SDS011;52192;52.002;5.956;2022-09-12T17:28:26;0.60;;;0.60;;
39044;SDS011;52192;52.002;5.956;2022-09-12T17:30:56;1.17;;;1.15;;
39044;SDS011;52192;52.002;5.956;2022-09-12T17:33:23;3.00;;;1.02;;
39044;SDS011;52192;52.002;5.956;2022-09-12T17:35:50;1.35;;;1.25;;
39044;SDS011;52192;52.002;5.956;2022-09-12T17:38:16;0.88;;;0.80;;
39044;SDS011;52192;52.002;5.956;2022-09-12T17:40:42;1.45;;;0.70;;
39044;SDS011;52192;52.002;5.956;2022-09-12T17:43:14;0.80;;;0.80;;
39044;SDS011;52192;52.002;5.956;2022-09-12T17:45:40;0.85;;;0.80;;
39044;SDS011;52192;52.002;5.956;2022-09-12T17:48:06;2.35;;;1.33;;
39044;SDS011;52192;52.002;5.956;2022-09-12T17:50:38;0.65;;;0.63;;
39044;SDS011;52192;52.002;5.956;2022-09-12T17:53:05;1.92;;;0.98;;
39044;SDS011;52192;52.002;5.956;2022-09-12T17:55:36;0.70;;;0.70;;
39044;SDS011;52192;52.002;5.956;2022-09-12T17:58:03;0.98;;;0.98;;